Terminal Aerodrome Forecast
Issued by NWS Bismarck, ND

Home | Current Version | Previous Version | Text Only | Print | Product List | Glossary On
Versions: 1 2 3 4 5 6 7 8 9 10 11 12 13 14 15 16 17 18 19 20 21 22 23
000
FTUS43 KBIS 140602 AAB
TAFBIS
TAF AMD
KBIS 140602Z 1406/1506 16013KT P6SM -FZDZ SCT008 OVC015
      TEMPO 1406/1409 4SM -FZDZ BR BKN006 OVC010
     FM140900 27009KT P6SM OVC015
     FM141100 30009KT P6SM OVC015
     FM141400 30009KT P6SM BKN010
     FM141800 29009KT P6SM SCT025
     FM142100 28008KT P6SM BKN100=

USA.gov is the U.S. government's official web portal to all federal, state and local government web resources and services.